Time;durP1;ratioP1;P1;durP2;ratioP2;P2;SDS_P1;SDS_P2;PMS_P1;PMS_P2;Temp;Humidity;BMP_temperature;BMP_pressure;BME280_temperature;BME280_humidity;BME280_pressure;Samples;Min_cycle;Max_cycle;Signal;HPM_P1;HPM_P2
2021/11/12 00:13:43;;;;;;;97.57;62.98;;;;;;;3.70;82.37;101036.18;2777066;84;21100;-79
2021/11/12 00:17:46;;;;;;;108.20;64.07;;;;;;;3.71;81.71;101033.50;2773147;85;21067;-75
2021/11/12 00:21:48;;;;;;;140.92;76.02;;;;;;;3.73;81.32;101026.84;2822363;82;21037;-77
2021/11/12 00:25:51;;;;;;;110.37;70.85;;;;;;;3.63;80.64;101026.36;2822953;82;21117;-76
2021/11/12 00:30:08;;;;;;;107.83;64.40;;;;;;;3.52;80.94;101024.17;2812767;84;21046;-78
2021/11/12 00:34:34;;;;;;;98.45;60.70;;;;;;;3.50;81.28;101024.70;2823683;82;21073;-76
2021/11/12 00:38:30;;;;;;;94.32;52.98;;;;;;;3.50;81.73;101022.06;2822431;82;21074;-79
2021/11/12 00:42:38;;;;;;;86.30;49.93;;;;;;;3.53;81.91;101019.30;2822941;82;21042;-78
2021/11/12 00:46:38;;;;;;;87.45;51.45;;;;;;;3.53;81.53;101024.56;2831868;82;21053;-79
2021/11/12 00:54:42;;;;;;;85.62;50.38;;;;;;;3.37;81.79;101023.50;2817192;84;21050;-79
2021/11/12 00:58:44;;;;;;;84.65;49.20;;;;;;;3.32;82.76;101020.17;2825494;82;21053;-80
2021/11/12 01:02:46;;;;;;;119.95;63.68;;;;;;;3.34;83.33;101024.47;2770803;84;21681;-80
2021/11/12 01:06:50;;;;;;;95.53;55.70;;;;;;;3.40;84.37;101020.73;2834579;82;21070;-78
2021/11/12 01:10:52;;;;;;;81.78;53.10;;;;;;;3.49;84.64;101016.41;2823142;83;21017;-77
2021/11/12 01:14:55;;;;;;;107.92;56.28;;;;;;;3.64;84.62;101014.08;2813607;83;21060;-79
2021/11/12 01:18:57;;;;;;;94.07;50.58;;;;;;;3.73;83.72;101015.00;2844773;82;21046;-73
2021/11/12 01:22:59;;;;;;;87.45;49.40;;;;;;;3.79;82.94;101016.08;2843834;83;21018;-78
2021/11/12 01:27:01;;;;;;;81.67;49.63;;;;;;;3.79;81.85;101016.08;2862892;82;21006;-78
2021/11/12 01:31:03;;;;;;;71.90;45.50;;;;;;;3.68;81.21;101016.97;2846623;82;21601;-79
2021/11/12 01:35:07;;;;;;;74.12;44.38;;;;;;;3.54;81.46;101017.09;2825312;84;20988;-79
2021/11/12 01:39:17;;;;;;;63.02;42.13;;;;;;;3.50;81.94;101015.48;2825072;84;21104;-78
2021/11/12 01:43:24;;;;;;;65.45;44.25;;;;;;;3.53;82.13;101015.36;2826321;82;21092;-75
2021/11/12 01:47:40;;;;;;;72.78;44.20;;;;;;;3.53;82.16;101012.73;2832616;83;21109;-78
2021/11/12 01:55:54;;;;;;;67.47;45.28;;;;;;;3.42;81.14;101011.01;2833363;83;21049;-75
2021/11/12 01:59:53;;;;;;;90.83;54.77;;;;;;;3.22;81.47;101010.03;2832204;83;21113;-78
2021/11/12 02:03:55;;;;;;;83.00;50.33;;;;;;;3.11;81.99;101002.56;2833454;83;21037;-75
2021/11/12 02:07:57;;;;;;;82.50;53.00;;;;;;;2.92;81.61;101001.56;2832275;83;21033;-71
2021/11/12 02:12:12;;;;;;;77.42;49.83;;;;;;;2.88;82.68;101002.61;2832550;84;21545;-74
2021/11/12 02:16:23;;;;;;;96.80;53.42;;;;;;;2.93;82.64;100998.86;2832013;83;21526;-78
2021/11/12 02:20:31;;;;;;;87.67;50.15;;;;;;;2.94;82.34;100992.69;2832797;82;21595;-75
2021/11/12 02:24:26;;;;;;;81.92;50.70;;;;;;;2.76;82.02;100992.11;2829803;82;21124;-77
2021/11/12 02:28:28;;;;;;;89.75;50.67;;;;;;;2.71;82.83;100993.11;2832828;84;21353;-79
2021/11/12 02:32:31;;;;;;;70.72;44.73;;;;;;;2.76;83.10;100985.54;2805579;84;21841;-77
2021/11/12 02:36:34;;;;;;;65.00;46.08;;;;;;;2.68;82.98;100978.78;2828568;83;21541;-79
2021/11/12 02:40:38;;;;;;;73.70;43.83;;;;;;;2.54;83.26;100977.99;2833250;83;21085;-77
2021/11/12 02:44:42;;;;;;;62.83;41.15;;;;;;;2.43;83.23;100984.09;2830355;82;21121;-78
2021/11/12 02:48:46;;;;;;;72.20;41.63;;;;;;;2.32;84.50;100984.95;2827327;82;21068;-77
2021/11/12 02:52:56;;;;;;;70.47;46.60;;;;;;;2.25;85.95;100994.34;2874022;82;21106;-78
2021/11/12 02:56:57;;;;;;;72.03;42.00;;;;;;;2.37;85.91;100997.02;2872858;81;21069;-74
2021/11/12 03:00:59;;;;;;;71.72;44.98;;;;;;;2.42;85.24;101002.94;2843068;82;21030;-77
2021/11/12 03:05:02;;;;;;;71.15;41.55;;;;;;;2.56;85.47;101008.16;2868669;82;21049;-77
2021/11/12 03:09:07;;;;;;;67.60;36.68;;;;;;;2.72;84.61;101015.00;2795004;84;21057;-78
2021/11/12 03:13:10;;;;;;;74.25;42.67;;;;;;;2.66;82.67;101009.52;2820133;82;21555;-77
2021/11/12 03:17:12;;;;;;;72.22;39.48;;;;;;;2.64;82.35;100998.21;2873889;82;21045;-77
2021/11/12 03:21:18;;;;;;;71.40;40.83;;;;;;;2.70;81.68;100991.88;2873973;82;21329;-78
2021/11/12 04:00:20;;;;;;;63.17;39.38;;;;;;;2.57;81.57;101001.98;2846519;82;21096;-74
2021/11/12 04:04:21;;;;;;;65.60;36.73;;;;;;;2.55;80.78;101000.72;2865464;81;21069;-77
2021/11/12 05:55:37;;;;;;;55.12;32.50;;;;;;;3.52;87.14;101025.96;2803670;84;21021;-79
2021/11/12 05:59:40;;;;;;;56.60;35.90;;;;;;;3.50;87.75;101029.95;2886199;82;21053;-79
2021/11/12 06:03:41;;;;;;;56.65;30.85;;;;;;;3.37;88.99;101031.39;2886136;82;21084;-80
2021/11/12 06:07:44;;;;;;;55.95;35.30;;;;;;;3.36;88.84;101031.83;2885669;82;21593;-79
2021/11/12 06:11:47;;;;;;;56.18;35.25;;;;;;;3.38;89.00;101026.05;2885089;82;21097;-77
2021/11/12 06:15:49;;;;;;;56.20;33.02;;;;;;;3.39;88.80;101015.08;2878951;82;21025;-79
2021/11/12 06:19:51;;;;;;;48.40;33.02;;;;;;;3.49;88.75;101016.88;2885013;82;21018;-78
2021/11/12 06:23:53;;;;;;;54.23;31.07;;;;;;;3.59;88.62;101018.68;2875390;82;21065;-78
2021/11/12 06:27:55;;;;;;;63.45;34.43;;;;;;;3.62;88.83;101017.23;2840553;82;22314;-78
2021/11/12 06:31:57;;;;;;;61.00;35.68;;;;;;;3.51;89.45;101019.83;2826459;84;21065;-78
2021/11/12 06:36:00;;;;;;;59.23;34.00;;;;;;;3.53;89.87;101019.30;2866713;82;21049;-76
2021/11/12 06:40:02;;;;;;;57.98;36.33;;;;;;;3.67;89.66;101013.50;2872804;82;21088;-76
2021/11/12 06:44:24;;;;;;;57.17;35.63;;;;;;;3.88;89.79;101016.16;2855189;82;21129;-77
2021/11/12 06:52:34;;;;;;;56.10;35.30;;;;;;;4.21;88.78;101023.51;2850778;82;21033;-77
2021/11/12 06:56:36;;;;;;;61.75;35.28;;;;;;;4.30;88.87;101019.63;2867917;82;21555;-77
2021/11/12 07:00:40;;;;;;;64.50;37.98;;;;;;;4.34;88.97;101017.72;2830274;82;21076;-76
2021/11/12 07:04:43;;;;;;;59.23;37.65;;;;;;;4.41;89.21;101023.97;2825265;84;21014;-77
2021/11/12 07:08:45;;;;;;;58.08;40.70;;;;;;;4.53;89.84;101017.77;2827451;84;21042;-74
2021/11/12 07:12:47;;;;;;;78.95;46.00;;;;;;;4.60;90.12;101020.96;2822006;84;21113;-77
2021/11/12 07:16:50;;;;;;;73.40;42.35;;;;;;;4.78;89.44;101024.56;2822978;84;20990;-79
2021/11/12 07:20:54;;;;;;;66.05;40.43;;;;;;;4.95;88.51;101023.33;2829653;84;21105;-78
2021/11/12 07:24:55;;;;;;;64.67;40.12;;;;;;;4.99;88.19;101017.42;2834066;82;21085;-79
2021/11/12 07:28:57;;;;;;;74.32;42.58;;;;;;;4.99;88.30;101018.73;2862200;82;20974;-82
2021/11/12 07:32:59;;;;;;;70.17;38.50;;;;;;;5.02;89.11;101019.07;2875359;82;21025;-77
2021/11/12 07:37:08;;;;;;;65.25;37.40;;;;;;;5.00;89.82;101021.77;2853622;82;21002;-79
2021/11/12 07:41:19;;;;;;;67.32;39.60;;;;;;;5.04;89.87;101023.36;2853866;82;21109;-77
2021/11/12 07:49:36;;;;;;;59.73;36.05;;;;;;;4.71;89.75;101023.50;2848152;82;21038;-78
2021/11/12 07:53:38;;;;;;;65.35;37.10;;;;;;;4.55;90.31;101022.51;2858448;82;21204;-78
2021/11/12 07:57:40;;;;;;;78.17;41.88;;;;;;;4.50;91.70;101019.20;2877535;81;21042;-79
2021/11/12 08:01:42;;;;;;;64.07;36.77;;;;;;;4.42;92.66;101017.78;2867585;82;21029;-77
2021/11/12 08:05:52;;;;;;;72.95;41.13;;;;;;;4.46;93.01;101022.45;2860195;82;21314;-82
2021/11/12 08:09:53;;;;;;;72.22;37.65;;;;;;;4.56;92.98;101012.36;2874545;81;21120;-82
2021/11/12 08:14:02;;;;;;;69.45;37.42;;;;;;;4.70;92.04;101005.98;2838178;83;21301;-84
2021/11/12 08:18:26;;;;;;;;;;;;;;;4.66;91.49;101004.42;2857687;82;21033;-82
2021/11/12 08:26:30;;;;;;;69.03;40.85;;;;;;;4.97;92.03;101004.77;2851959;82;22702;-81
2021/11/12 08:38:39;;;;;;;78.17;45.40;;;;;;;5.61;91.16;100989.87;2883575;82;21029;-80
2021/11/12 08:42:42;;;;;;;104.63;56.95;;;;;;;5.93;91.00;100988.73;2859605;80;21029;-80
2021/11/12 08:50:49;;;;;;;86.97;52.25;;;;;;;6.55;88.45;100979.77;2829994;82;21085;-77
2021/11/12 08:54:52;;;;;;;118.75;71.42;;;;;;;6.88;88.57;100977.17;2829257;82;21057;-82
2021/11/12 08:58:55;;;;;;;74.77;45.58;;;;;;;7.15;87.36;100977.42;2835111;82;21043;-80
2021/11/12 09:02:57;;;;;;;65.08;42.78;;;;;;;7.39;87.69;100971.66;2826577;83;21092;-81
2021/11/12 09:06:59;;;;;;;67.05;41.98;;;;;;;7.60;87.11;100970.03;2830915;83;21142;-82
2021/11/12 09:11:04;;;;;;;65.05;41.90;;;;;;;7.82;86.69;100974.44;2830717;83;21061;-81
2021/11/12 09:15:14;;;;;;;54.38;34.43;;;;;;;8.02;86.27;100966.27;2831574;84;20998;-81
2021/11/12 09:19:13;;;;;;;69.53;42.30;;;;;;;8.21;85.96;100958.03;2829391;82;21029;-79
2021/11/12 09:23:33;;;;;;;60.88;38.20;;;;;;;8.50;85.64;100964.70;2831007;84;21073;-80
2021/11/12 09:27:40;;;;;;;65.85;38.25;;;;;;;8.73;85.20;100959.75;2804339;84;21082;-82
2021/11/12 09:31:43;;;;;;;66.42;41.73;;;;;;;9.00;86.12;100975.22;2779554;85;21362;-78
2021/11/12 09:35:46;;;;;;;97.22;50.78;;;;;;;9.23;85.32;100962.25;2805818;81;21308;-81
2021/11/12 09:39:56;;;;;;;64.72;37.70;;;;;;;9.36;83.18;100953.49;2828152;81;21313;-80
2021/11/12 09:44:04;;;;;;;71.65;45.45;;;;;;;9.51;81.21;100951.61;2826259;79;21050;-75
2021/11/12 09:48:09;;;;;;;61.02;40.05;;;;;;;9.63;82.57;100954.78;2790898;83;21093;-80
2021/11/12 09:52:13;;;;;;;58.23;40.05;;;;;;;9.65;80.37;100941.41;2795122;83;21083;-81
2021/11/12 09:56:16;;;;;;;68.83;45.35;;;;;;;9.64;80.26;100939.72;2844417;83;21031;-77
2021/11/12 10:00:24;;;;;;;62.95;39.50;;;;;;;9.67;80.85;100935.02;2843991;83;21105;-78
2021/11/12 10:04:27;;;;;;;64.55;40.45;;;;;;;9.70;80.89;100916.70;2818028;83;21055;-78
2021/11/12 10:08:37;;;;;;;69.37;41.45;;;;;;;9.70;78.82;100913.56;2841316;83;21070;-79
2021/11/12 10:12:48;;;;;;;62.33;42.40;;;;;;;9.75;77.35;100913.75;2844284;83;20992;-79
2021/11/12 10:16:56;;;;;;;64.87;39.42;;;;;;;9.71;77.23;100902.47;2844177;83;21011;-80
2021/11/12 10:21:02;;;;;;;61.28;40.00;;;;;;;9.76;78.22;100891.04;2817808;81;21011;-76
2021/11/12 10:25:08;;;;;;;60.65;39.92;;;;;;;9.83;78.02;100885.69;2817562;79;21047;-78
2021/11/12 10:29:17;;;;;;;56.85;37.05;;;;;;;9.98;77.21;100885.56;2844227;79;21055;-75
2021/11/12 10:33:24;;;;;;;55.48;33.53;;;;;;;10.02;77.19;100876.41;2844079;83;21007;-78
2021/11/12 10:37:31;;;;;;;57.23;36.98;;;;;;;9.75;76.90;100872.07;2837558;82;21051;-77
2021/11/12 10:41:37;;;;;;;54.65;36.53;;;;;;;9.66;77.02;100860.27;2844756;83;20979;-79
2021/11/12 10:45:41;;;;;;;62.15;39.05;;;;;;;9.32;78.96;100861.23;2822731;82;21010;-80
2021/11/12 10:49:50;;;;;;;58.70;39.33;;;;;;;9.37;79.03;100856.95;2929701;81;21036;-79
2021/11/12 10:53:53;;;;;;;80.77;47.73;;;;;;;9.47;79.02;100855.84;2904536;81;21013;-78
2021/11/12 10:58:01;;;;;;;68.30;42.93;;;;;;;9.60;78.30;100847.88;2904576;81;21025;-76
2021/11/12 11:02:14;;;;;;;73.28;44.20;;;;;;;9.68;78.54;100837.60;2929972;81;21340;-79
2021/11/12 11:06:24;;;;;;;62.95;37.65;;;;;;;9.66;77.68;100841.67;2904365;81;21079;-78
2021/11/12 11:10:38;;;;;;;62.93;37.23;;;;;;;9.56;78.31;100843.28;2904693;81;21577;-78
2021/11/12 11:14:40;;;;;;;69.03;43.70;;;;;;;9.39;78.95;100834.66;2931847;80;21657;-79
2021/11/12 11:18:46;;;;;;;65.62;42.90;;;;;;;9.39;79.84;100821.84;2931726;81;20985;-77
2021/11/12 11:22:55;;;;;;;59.75;39.25;;;;;;;9.44;80.27;100817.09;2929719;81;21477;-77
2021/11/12 11:26:59;;;;;;;79.97;47.48;;;;;;;9.47;80.37;100808.91;2932283;81;21494;-77
2021/11/12 11:31:06;;;;;;;56.20;35.58;;;;;;;9.56;79.95;100806.94;2929416;81;20981;-77
2021/11/12 11:35:10;;;;;;;74.82;47.80;;;;;;;9.35;80.93;100792.48;2932623;80;20973;-76
2021/11/12 11:39:17;;;;;;;58.75;38.73;;;;;;;9.57;79.79;100782.57;2904722;81;20985;-75
2021/11/12 11:43:20;;;;;;;70.20;46.88;;;;;;;9.45;80.56;100774.98;2932118;81;21017;-78
2021/11/12 11:47:26;;;;;;;73.90;51.70;;;;;;;9.58;81.30;100781.11;2878033;80;21041;-76
2021/11/12 11:51:40;;;;;;;90.03;57.62;;;;;;;9.69;80.39;100776.37;2859488;83;21011;-76
2021/11/12 11:55:43;;;;;;;63.63;43.63;;;;;;;9.73;80.51;100769.05;2858799;83;21312;-78
2021/11/12 11:59:47;;;;;;;61.23;37.75;;;;;;;9.64;80.19;100761.25;2858962;83;21002;-74
2021/11/12 12:04:09;;;;;;;65.22;41.77;;;;;;;9.58;79.59;100749.24;2876348;82;21034;-76
2021/11/12 12:08:31;;;;;;;67.05;43.20;;;;;;;9.38;80.70;100745.80;2815699;83;21004;-77
2021/11/12 12:12:39;;;;;;;66.40;39.10;;;;;;;9.66;79.44;100748.70;2790019;84;20979;-74
2021/11/12 12:16:44;;;;;;;60.70;38.73;;;;;;;9.49;80.59;100729.13;2762904;85;21034;-78
2021/11/12 12:21:21;;;;;;;60.60;43.35;;;;;;;9.48;80.62;100729.62;2740421;85;21390;-76
2021/11/12 13:27:29;;;;;;;67.20;39.93;;;;;;;9.75;79.69;100665.34;2843204;81;21057;-79
2021/11/12 13:31:32;;;;;;;48.85;36.98;;;;;;;9.75;80.28;100651.56;2883522;81;21035;-75
2021/11/12 13:35:48;;;;;;;64.27;38.75;;;;;;;9.74;80.30;100655.18;2844042;83;21043;-80
2021/11/12 13:40:08;;;;;;;59.10;38.60;;;;;;;9.69;79.10;100666.63;2873009;83;21297;-76
2021/11/12 13:44:18;;;;;;;59.45;37.55;;;;;;;9.67;79.46;100673.86;2844606;80;21047;-74
2021/11/12 13:48:20;;;;;;;58.98;37.55;;;;;;;9.60;79.33;100665.95;2824223;82;21099;-79
2021/11/12 13:52:28;;;;;;;59.83;39.88;;;;;;;9.47;79.96;100662.86;2830386;81;21093;-73
2021/11/12 13:56:37;;;;;;;58.00;40.63;;;;;;;9.46;80.25;100647.89;2853838;82;21029;-74
2021/11/12 14:00:40;;;;;;;58.28;39.55;;;;;;;9.33;79.63;100643.91;2856938;79;21077;-76
2021/11/12 14:04:44;;;;;;;63.00;39.30;;;;;;;9.22;80.33;100643.34;2876394;80;21038;-78
2021/11/12 14:09:03;;;;;;;57.30;36.28;;;;;;;9.17;80.92;100642.83;2876725;80;21074;-81
2021/11/12 14:13:11;;;;;;;54.95;35.38;;;;;;;8.94;81.73;100630.69;2860678;82;20929;-76
2021/11/12 14:17:23;;;;;;;64.60;39.42;;;;;;;8.89;81.50;100632.83;2877186;81;21001;-79
2021/11/12 14:21:42;;;;;;;67.40;41.92;;;;;;;8.83;81.54;100629.25;2877305;80;21000;-78
2021/11/12 14:26:18;;;;;;;71.05;43.92;;;;;;;8.73;81.71;100630.85;2879462;80;21029;-81
2021/11/12 14:30:45;;;;;;;66.12;40.15;;;;;;;8.66;81.78;100627.30;2877547;80;21254;-77
2021/11/12 14:34:55;;;;;;;59.08;38.83;;;;;;;8.51;82.27;100622.55;2878469;81;21044;-80
2021/11/12 14:39:05;;;;;;;61.65;40.95;;;;;;;8.32;82.51;100631.34;2879927;81;21064;-77
2021/11/12 14:47:39;;;;;;;68.90;43.35;;;;;;;8.10;83.11;100628.79;2879736;80;21059;-78
2021/11/12 14:52:09;;;;;;;62.15;40.28;;;;;;;8.03;83.46;100636.29;2858252;82;21015;-78
2021/11/12 14:56:04;;;;;;;60.33;38.80;;;;;;;8.00;83.73;100619.28;2871048;81;21137;-80
2021/11/12 15:00:09;;;;;;;58.60;37.83;;;;;;;7.93;83.77;100620.64;2881374;82;21086;-80
2021/11/12 15:04:11;;;;;;;60.85;38.05;;;;;;;7.76;84.44;100619.07;2882453;81;21074;-80
2021/11/12 15:08:20;;;;;;;63.85;43.75;;;;;;;7.68;84.91;100619.59;2858162;82;21015;-80
2021/11/12 15:12:17;;;;;;;70.52;43.73;;;;;;;7.65;85.04;100633.00;2880292;81;21747;-79
2021/11/12 15:16:25;;;;;;;62.03;41.02;;;;;;;7.62;85.52;100639.37;2882447;82;21012;-80
2021/11/12 15:20:28;;;;;;;64.12;40.38;;;;;;;7.61;85.86;100638.99;2857844;82;21086;-80
2021/11/12 15:24:50;;;;;;;66.20;43.78;;;;;;;7.56;86.05;100632.66;2857675;82;21001;-79
2021/11/12 15:28:54;;;;;;;70.20;44.27;;;;;;;7.50;86.18;100630.87;2882225;81;21027;-81
2021/11/12 15:33:08;;;;;;;62.73;39.65;;;;;;;7.41;86.93;100621.71;2882005;81;21071;-76
2021/11/12 15:37:17;;;;;;;66.12;44.33;;;;;;;7.37;87.28;100618.89;2880552;81;21004;-76
2021/11/12 15:49:31;;;;;;;78.87;50.78;;;;;;;7.15;88.84;100610.48;2852964;83;21021;-78
2021/11/12 15:53:45;;;;;;;82.40;48.25;;;;;;;7.14;88.74;100614.08;2878123;83;20993;-78
2021/11/12 15:58:04;;;;;;;73.55;45.45;;;;;;;7.22;88.46;100618.90;2847948;80;21041;-79
2021/11/12 16:06:06;;;;;;;80.12;49.15;;;;;;;7.37;88.23;100615.78;2872633;81;21025;-78
2021/11/12 16:14:22;;;;;;;103.40;58.42;;;;;;;7.48;88.03;100613.78;2877791;83;21087;-81
2021/11/12 16:22:48;;;;;;;74.82;47.73;;;;;;;7.36;88.90;100615.38;2786710;84;21036;-78
2021/11/12 16:26:42;;;;;;;66.40;42.70;;;;;;;7.42;88.36;100611.50;2870191;82;21044;-81
2021/11/12 16:30:47;;;;;;;71.92;45.08;;;;;;;7.46;88.36;100626.23;2849176;83;21298;-76
2021/11/12 16:34:56;;;;;;;63.65;39.23;;;;;;;7.46;88.40;100627.56;2876084;80;21608;-79
2021/11/12 16:38:57;;;;;;;66.33;38.25;;;;;;;7.49;88.20;100615.94;2849339;82;21059;-78
2021/11/12 17:00:23;;;;;;;61.95;43.45;;;;;;;7.28;89.15;100601.34;2861020;81;21942;-75
2021/11/12 17:04:32;;;;;;;67.67;46.98;;;;;;;7.23;89.89;100615.30;2880206;81;20996;-76
2021/11/12 17:08:52;;;;;;;68.10;44.98;;;;;;;7.16;90.46;100610.03;2882379;81;21513;-75
2021/11/12 17:17:57;;;;;;;86.25;49.93;;;;;;;7.26;90.53;100612.95;2882344;82;21000;-78
2021/11/12 17:47:19;;;;;;;66.50;42.88;;;;;;;7.29;89.11;100615.40;2882801;82;21051;-78
2021/11/12 21:45:07;;;;;;;54.85;32.25;;;;;;;6.78;90.55;100413.62;2841456;83;21067;-76
2021/11/12 21:49:01;;;;;;;53.68;34.13;;;;;;;6.77;90.38;100418.05;2891712;82;21059;-76
2021/11/12 21:53:04;;;;;;;57.10;33.42;;;;;;;6.77;90.31;100411.92;2893416;82;21007;-76
2021/11/12 21:57:06;;;;;;;56.15;34.75;;;;;;;6.76;90.20;100406.26;2893221;82;21066;-76
2021/11/12 22:01:08;;;;;;;71.95;35.13;;;;;;;6.77;90.06;100398.70;2877129;82;21047;-75
2021/11/12 22:05:10;;;;;;;55.98;37.90;;;;;;;6.71;90.33;100382.30;2828968;84;21590;-75
2021/11/12 22:09:12;;;;;;;57.03;35.83;;;;;;;6.69;90.50;100378.91;2828916;84;21079;-76
2021/11/12 22:13:15;;;;;;;62.17;36.45;;;;;;;6.67;90.31;100375.48;2828968;84;21043;-76
2021/11/12 22:17:17;;;;;;;60.65;37.70;;;;;;;6.66;90.23;100368.50;2828777;84;21122;-76
2021/11/12 22:21:19;;;;;;;51.55;33.10;;;;;;;6.64;90.26;100362.47;2828799;83;21047;-76
2021/11/12 22:25:21;;;;;;;57.78;36.38;;;;;;;6.67;89.95;100360.95;2828777;84;21098;-76
2021/11/12 22:29:23;;;;;;;56.98;33.23;;;;;;;6.73;89.68;100354.91;2828811;84;21027;-76
2021/11/12 22:33:24;;;;;;;49.63;33.25;;;;;;;6.75;89.46;100355.66;2875500;82;21018;-76
2021/11/12 22:37:27;;;;;;;54.58;32.70;;;;;;;6.70;89.53;100354.63;2871929;83;21015;-76
2021/11/12 22:41:29;;;;;;;45.55;28.90;;;;;;;6.67;89.58;100353.50;2828979;84;21008;-76
2021/11/12 22:45:30;;;;;;;48.83;30.32;;;;;;;6.56;89.77;100363.44;2828907;84;21115;-75
2021/11/12 22:49:32;;;;;;;53.78;34.05;;;;;;;6.57;89.91;100347.95;2875641;82;21046;-75
2021/11/12 22:53:34;;;;;;;53.52;31.60;;;;;;;6.62;89.77;100362.21;2875654;82;21086;-76
2021/11/12 22:57:35;;;;;;;47.62;31.62;;;;;;;6.62;89.87;100348.99;2875519;82;21058;-76
2021/11/12 23:01:37;;;;;;;53.48;34.33;;;;;;;6.64;89.83;100351.89;2924542;81;20979;-76
2021/11/12 23:05:38;;;;;;;51.92;32.98;;;;;;;6.59;90.18;100339.95;2936644;81;21007;-76
2021/11/12 23:09:41;;;;;;;52.00;31.68;;;;;;;6.53;90.23;100331.44;2936826;81;21010;-76
2021/11/12 23:13:45;;;;;;;50.75;34.27;;;;;;;6.42;90.76;100325.52;2936620;80;21003;-76
2021/11/12 23:17:50;;;;;;;55.17;33.00;;;;;;;6.36;90.70;100324.60;2936847;81;20973;-77
2021/11/12 23:21:52;;;;;;;66.00;32.80;;;;;;;6.35;90.80;100326.88;2936635;81;21548;-76
2021/11/12 23:25:55;;;;;;;53.25;31.55;;;;;;;6.34;90.73;100325.17;2936820;81;21034;-76
2021/11/12 23:29:56;;;;;;;51.48;34.40;;;;;;;6.28;90.88;100318.94;2936561;81;21014;-76
2021/11/12 23:33:58;;;;;;;59.67;36.00;;;;;;;6.24;91.11;100313.48;2936409;80;21083;-76
2021/11/12 23:38:00;;;;;;;53.08;33.63;;;;;;;6.26;90.85;100310.27;2936437;80;20975;-76
2021/11/12 23:42:02;;;;;;;53.15;31.05;;;;;;;6.08;91.48;100313.12;2936715;80;21006;-75
2021/11/12 23:46:05;;;;;;;55.17;33.85;;;;;;;5.98;92.04;100308.02;2936875;81;21023;-76
2021/11/12 23:50:08;;;;;;;59.73;36.90;;;;;;;5.99;92.09;100307.08;2936697;81;21018;-76
2021/11/12 23:54:11;;;;;;;59.05;34.18;;;;;;;6.05;91.73;100296.64;2936699;81;21096;-75
2021/11/12 23:58:13;;;;;;;64.62;32.60;;;;;;;5.98;91.71;100288.22;2937029;81;20959;-76
